Saturday, May 26, 2018, 2:31 AM EDT
Back to Local

KPEO, Penn Yan Airport

Location: Penn Yan, NY, United States Lat: 42.65
Local Time: 2:31 AM EDT ( 6:31 GMT) Lon: -77.05
Time Zone: US/Eastern Elev: 977 ft

Show me the last for .
Show Decoded

2018-05-26 01:53 METAR KPEO 260553Z AUTO 21008KT 10SM CLR 18/11 A2982 RMK AO2 SLPNO T01780111
                 10272 20178 56007 =
2018-05-26 00:53 METAR KPEO 260453Z AUTO 21009KT 10SM CLR 20/11 A2983 RMK AO2 SLPNO T02000111
                 403060183 =
2018-05-25 23:53 METAR KPEO 260353Z AUTO 20006KT 10SM CLR 21/11 A2984 RMK AO2 SLPNO T02060111 =
2018-05-25 22:53 METAR KPEO 260253Z AUTO 00000KT 10SM CLR 19/12 A2985 RMK AO2 SLPNO T01890117
                 52008 =
2018-05-25 21:53 METAR KPEO 260153Z AUTO 26003KT 10SM CLR 21/12 A2984 RMK AO2 SLPNO T02060117 =
2018-05-25 20:53 METAR KPEO 260053Z AUTO 15003KT 10SM CLR 21/12 A2983 RMK AO2 SLPNO T02110117 =
2018-05-25 19:53 METAR KPEO 252353Z AUTO 28004KT 10SM CLR 27/11 A2983 RMK AO2 SLPNO 6////
                 T02720106 56007 =
2018-05-25 18:53 METAR KPEO 252253Z AUTO 26008KT 10SM CLR 29/10 A2983 RMK AO2 SLPNO T02890100 =
2018-05-25 17:53 METAR KPEO 252153Z AUTO 26008KT 5SM HZ CLR 29/09 A2984 RMK AO2 SLPNO T02940089 =
2018-05-25 16:53 METAR KPEO 252053Z AUTO 26008KT 10SM CLR 30/08 A2985 RMK AO2 SLPNO 6////
                 T03000083 =
2018-05-25 15:53 METAR KPEO 251953Z AUTO 26007KT 230V300 30/09 A2987 RMK AO2 SLPNO T03000089
                 RVRNO =
2018-05-25 08:53 METAR KPEO 251253Z AUTO 20009KT 10SM CLR 19/09 A3002 RMK AO2 SLP160 T01940089 =
2018-05-25 07:53 METAR KPEO 251153Z AUTO 21010KT 10SM CLR 16/09 A3003 RMK AO2 SLP163 T01610089
                 10161 20133 58003 =
2018-05-25 06:53 METAR KPEO 251053Z AUTO 22009KT 10SM CLR 14/09 A3003 RMK AO2 SLP165 T01440089 =
2018-05-25 05:53 METAR KPEO 250953Z AUTO 22009KT 10SM CLR 13/09 A3004 RMK AO2 SLP167 T01330089 =
2018-05-25 04:53 METAR KPEO 250853Z AUTO 22007KT 10SM CLR 14/08 A3003 RMK AO2 SLP165 T01390083
                 58009 =
2018-05-25 03:53 METAR KPEO 250753Z AUTO 23006KT 10SM CLR 15/08 A3005 RMK AO2 SLP172 T01500083 =
2018-05-25 02:53 METAR KPEO 250653Z AUTO 22007KT 10SM CLR 16/08 A3005 RMK AO2 SLP172 T01560083 =

Support USWX by starting your Amazon purchase here.